Time,TemperatureF,DewpointF,PressureIn,WindDirection,WindDirectionDegrees,WindSpeedMPH,WindSpeedGustMPH,Humidity,HourlyPrecipIn,Conditions,Clouds,dailyrainin,SoftwareType,DateUTC
2013-01-21 00:17:00,30.7,14.0,29.94,NW,304,14.0,28.0,50,0.00,,,0.00,weatherlink.com 1.10,2013-01-21 05:17:00,
2013-01-21 00:32:00,30.3,13.0,29.94,NW,319,12.0,22.0,48,0.00,,,0.00,weatherlink.com 1.10,2013-01-21 05:32:00,
2013-01-21 00:47:00,30.0,13.0,29.95,WNW,302,10.0,21.0,50,0.00,,,0.00,weatherlink.com 1.10,2013-01-21 05:47:00,
2013-01-21 01:02:00,29.7,14.0,29.95,West,271,8.0,16.0,52,0.00,,,0.00,weatherlink.com 1.10,2013-01-21 06:02:00,
2013-01-21 01:17:00,29.4,13.0,29.96,NNW,333,6.0,19.0,51,0.00,,,0.00,weatherlink.com 1.10,2013-01-21 06:17:00,
2013-01-21 01:32:00,29.0,14.0,29.97,NW,304,9.0,15.0,54,0.00,,,0.00,weatherlink.com 1.10,2013-01-21 06:32:00,
2013-01-21 01:48:00,28.8,13.0,29.98,NW,322,11.0,14.0,52,0.00,,,0.00,weatherlink.com 1.10,2013-01-21 06:48:00,
2013-01-21 02:03:00,28.6,13.0,29.99,West,262,6.0,14.0,52,0.00,,,0.00,weatherlink.com 1.10,2013-01-21 07:03:00,
2013-01-21 02:18:00,28.3,13.0,29.99,WNW,300,7.0,12.0,54,0.00,,,0.00,weatherlink.com 1.10,2013-01-21 07:18:00,
2013-01-21 02:48:00,28.0,13.0,30.01,WNW,295,6.0,10.0,53,0.00,,,0.00,weatherlink.com 1.10,2013-01-21 07:48:00,
2013-01-21 03:03:00,27.6,13.0,30.01,WNW,290,6.0,9.0,55,0.00,,,0.00,weatherlink.com 1.10,2013-01-21 08:03:00,
2013-01-21 03:18:00,27.5,12.0,30.01,WNW,299,8.0,11.0,53,0.00,,,0.00,weatherlink.com 1.10,2013-01-21 08:18:00,
2013-01-21 03:33:00,27.3,12.0,30.01,West,278,9.0,11.0,53,0.00,,,0.00,weatherlink.com 1.10,2013-01-21 08:33:00,
2013-01-21 03:48:00,27.2,12.0,30.02,WNW,297,5.0,13.0,53,0.00,,,0.00,weatherlink.com 1.10,2013-01-21 08:48:00,
2013-01-21 04:03:00,27.2,13.0,30.02,NW,324,5.0,12.0,55,0.00,,,0.00,weatherlink.com 1.10,2013-01-21 09:03:00,
2013-01-21 04:18:00,27.5,12.0,30.03,NW,312,11.0,15.0,53,0.00,,,0.00,weatherlink.com 1.10,2013-01-21 09:18:00,
2013-01-21 04:48:00,26.9,9.0,30.04,WNW,294,4.0,27.0,48,0.00,,,0.00,weatherlink.com 1.10,2013-01-21 09:48:00,
2013-01-21 05:18:00,26.3,10.0,30.05,WNW,301,5.0,24.0,50,0.00,,,0.00,weatherlink.com 1.10,2013-01-21 10:18:00,
2013-01-21 05:33:00,26.0,10.0,30.05,WNW,295,11.0,17.0,51,0.00,,,0.00,weatherlink.com 1.10,2013-01-21 10:33:00,
2013-01-21 05:48:00,25.7,10.0,30.06,NW,307,8.0,14.0,51,0.00,,,0.00,weatherlink.com 1.10,2013-01-21 10:48:00,
2013-01-21 06:03:00,25.4,11.0,30.06,NW,310,9.0,13.0,54,0.00,,,0.00,weatherlink.com 1.10,2013-01-21 11:03:00,
2013-01-21 06:18:00,25.3,11.0,30.07,WNW,301,10.0,10.0,56,0.00,,,0.00,weatherlink.com 1.10,2013-01-21 11:18:00,
2013-01-21 06:33:00,25.0,11.0,30.07,WNW,298,8.0,9.0,56,0.00,,,0.00,weatherlink.com 1.10,2013-01-21 11:33:00,
2013-01-21 06:48:00,24.8,11.0,30.08,WNW,302,10.0,16.0,55,0.00,,,0.00,weatherlink.com 1.10,2013-01-21 11:48:00,
2013-01-21 07:03:00,24.7,9.0,30.08,NW,311,7.0,18.0,51,0.00,,,0.00,weatherlink.com 1.10,2013-01-21 12:03:00,
2013-01-21 07:18:00,24.5,8.0,30.09,West,264,6.0,14.0,50,0.00,,,0.00,weatherlink.com 1.10,2013-01-21 12:18:00,
2013-01-21 07:33:00,24.7,9.0,30.09,West,272,6.0,11.0,51,0.00,,,0.00,weatherlink.com 1.10,2013-01-21 12:33:00,
2013-01-21 07:48:00,25.0,9.0,30.09,NW,307,10.0,14.0,50,0.00,,,0.00,weatherlink.com 1.10,2013-01-21 12:48:00,
2013-01-21 08:03:00,25.4,9.0,30.10,WNW,287,8.0,16.0,49,0.00,,,0.00,weatherlink.com 1.10,2013-01-21 13:03:00,
2013-01-21 08:19:00,25.8,8.0,30.11,NW,305,9.0,14.0,48,0.00,,,0.00,weatherlink.com 1.10,2013-01-21 13:19:00,
2013-01-21 08:34:00,25.8,8.0,30.12,NW,311,11.0,20.0,46,0.00,,,0.00,weatherlink.com 1.10,2013-01-21 13:34:00,
2013-01-21 08:49:00,26.1,8.0,30.12,NNW,338,9.0,19.0,46,0.00,,,0.00,weatherlink.com 1.10,2013-01-21 13:49:00,
2013-01-21 09:04:00,26.0,7.0,30.12,WNW,301,11.0,20.0,45,0.00,,,0.00,weatherlink.com 1.10,2013-01-21 14:04:00,
2013-01-21 09:19:00,26.2,7.0,30.12,WNW,297,11.0,20.0,45,0.00,,,0.00,weatherlink.com 1.10,2013-01-21 14:19:00,
2013-01-21 09:34:00,26.4,8.0,30.12,WNW,284,13.0,21.0,45,0.00,,,0.00,weatherlink.com 1.10,2013-01-21 14:34:00,
2013-01-21 09:49:00,26.2,6.0,30.12,NNW,347,11.0,18.0,42,0.00,,,0.00,weatherlink.com 1.10,2013-01-21 14:49:00,
2013-01-21 10:04:00,26.2,7.0,30.11,NNW,329,13.0,16.0,44,0.00,,,0.00,weatherlink.com 1.10,2013-01-21 15:04:00,
2013-01-21 10:19:00,26.3,8.0,30.11,NE,39,5.0,19.0,45,0.00,,,0.00,weatherlink.com 1.10,2013-01-21 15:19:00,
2013-01-21 10:34:00,26.9,9.0,30.11,NNE,23,12.0,16.0,46,0.00,,,0.00,weatherlink.com 1.10,2013-01-21 15:34:00,
2013-01-21 10:49:00,26.4,8.0,30.11,NW,307,4.0,17.0,45,0.00,,,0.00,weatherlink.com 1.10,2013-01-21 15:49:00,
2013-01-21 11:04:00,26.7,8.0,30.10,NNW,345,3.0,15.0,46,0.00,,,0.00,weatherlink.com 1.10,2013-01-21 16:04:00,
2013-01-21 11:19:00,27.5,9.0,30.08,NW,307,7.0,12.0,45,0.00,,,0.00,weatherlink.com 1.10,2013-01-21 16:19:00,
2013-01-21 11:34:00,28.3,10.0,30.07,WNW,298,6.0,12.0,47,0.00,,,0.00,weatherlink.com 1.10,2013-01-21 16:34:00,
2013-01-21 11:49:00,28.0,9.0,30.06,NW,307,5.0,13.0,45,0.00,,,0.00,weatherlink.com 1.10,2013-01-21 16:49:00,
2013-01-21 12:04:00,28.2,10.0,30.05,NNW,340,1.0,9.0,46,0.00,,,0.00,weatherlink.com 1.10,2013-01-21 17:04:00,
2013-01-21 12:19:00,28.7,10.0,30.04,West,259,9.0,10.0,46,0.00,,,0.00,weatherlink.com 1.10,2013-01-21 17:19:00,
2013-01-21 12:34:00,28.2,10.0,30.04,West,259,8.0,9.0,46,0.00,,,0.00,weatherlink.com 1.10,2013-01-21 17:34:00,
2013-01-21 12:49:00,27.9,10.0,30.04,West,264,8.0,10.0,48,0.00,,,0.00,weatherlink.com 1.10,2013-01-21 17:49:00,
2013-01-21 13:04:00,28.0,12.0,30.03,WSW,242,10.0,12.0,51,0.00,,,0.00,weatherlink.com 1.10,2013-01-21 18:04:00,
2013-01-21 13:19:00,28.0,10.0,30.03,West,259,6.0,12.0,48,0.00,,,0.00,weatherlink.com 1.10,2013-01-21 18:19:00,
2013-01-21 13:34:00,27.9,11.0,30.03,WSW,242,2.0,10.0,49,0.00,,,0.00,weatherlink.com 1.10,2013-01-21 18:34:00,
2013-01-21 13:49:00,27.9,11.0,30.02,WSW,246,3.0,8.0,49,0.00,,,0.00,weatherlink.com 1.10,2013-01-21 18:49:00,
2013-01-21 14:04:00,27.7,12.0,30.02,WSW,252,8.0,9.0,51,0.00,,,0.00,weatherlink.com 1.10,2013-01-21 19:04:00,
2013-01-21 14:19:00,27.7,11.0,30.01,West,259,6.0,9.0,50,0.00,,,0.00,weatherlink.com 1.10,2013-01-21 19:19:00,
2013-01-21 14:34:00,27.7,12.0,30.02,WSW,253,8.0,12.0,52,0.00,,,0.00,weatherlink.com 1.10,2013-01-21 19:34:00,
2013-01-21 14:49:00,27.6,12.0,30.02,West,262,10.0,13.0,53,0.00,,,0.00,weatherlink.com 1.10,2013-01-21 19:49:00,
2013-01-21 15:04:00,27.6,12.0,30.01,WSW,249,7.0,12.0,53,0.00,,,0.00,weatherlink.com 1.10,2013-01-21 20:04:00,
2013-01-21 15:19:00,27.3,13.0,30.00,WSW,238,4.0,8.0,54,0.00,,,0.00,weatherlink.com 1.10,2013-01-21 20:19:00,
2013-01-21 15:34:00,27.3,14.0,30.00,SW,236,5.0,11.0,57,0.00,,,0.00,weatherlink.com 1.10,2013-01-21 20:34:00,
2013-01-21 15:49:00,27.4,15.0,29.99,West,270,8.0,11.0,59,0.00,,,0.00,weatherlink.com 1.10,2013-01-21 20:49:00,
2013-01-21 16:04:00,27.4,15.0,29.99,WSW,243,8.0,9.0,60,0.00,,,0.00,weatherlink.com 1.10,2013-01-21 21:04:00,
2013-01-21 16:19:00,27.5,16.0,29.98,WSW,240,3.0,7.0,62,0.00,,,0.00,weatherlink.com 1.10,2013-01-21 21:19:00,
2013-01-21 16:34:00,27.4,17.0,29.98,WSW,238,10.0,10.0,65,0.00,,,0.00,weatherlink.com 1.10,2013-01-21 21:34:00,
2013-01-21 16:49:00,27.4,18.0,29.97,West,266,7.0,7.0,67,0.00,,,0.00,weatherlink.com 1.10,2013-01-21 21:49:00,
2013-01-21 17:04:00,27.4,18.0,29.96,WSW,237,4.0,9.0,69,0.00,,,0.00,weatherlink.com 1.10,2013-01-21 22:04:00,
2013-01-21 17:19:00,27.4,18.0,29.96,WSW,242,3.0,6.0,69,0.00,,,0.00,weatherlink.com 1.10,2013-01-21 22:19:00,
2013-01-21 17:34:00,27.2,20.0,29.96,SW,229,1.0,9.0,73,0.00,,,0.00,weatherlink.com 1.10,2013-01-21 22:34:00,
2013-01-21 17:49:00,26.9,21.0,29.95,WSW,242,1.0,6.0,77,0.00,,,0.00,weatherlink.com 1.10,2013-01-21 22:49:00,
2013-01-21 18:04:00,26.6,21.0,29.94,WSW,242,0.0,5.0,80,0.00,,,0.00,weatherlink.com 1.10,2013-01-21 23:04:00,
2013-01-21 18:19:00,26.6,23.0,29.94,SSE,153,3.0,5.0,86,0.00,,,0.00,weatherlink.com 1.10,2013-01-21 23:19:00,
2013-01-21 18:34:00,26.6,24.0,29.94,South,173,1.0,4.0,88,0.00,,,0.00,weatherlink.com 1.10,2013-01-21 23:34:00,
2013-01-21 18:49:00,26.8,24.0,29.94,WSW,250,0.0,2.0,90,0.00,,,0.00,weatherlink.com 1.10,2013-01-21 23:49:00,
2013-01-21 19:04:00,26.9,25.0,29.94,SE,143,0.0,0.0,91,0.00,,,0.00,weatherlink.com 1.10,2013-01-22 00:04:00,
2013-01-21 19:19:00,26.8,25.0,29.94,SE,142,0.0,0.0,92,0.00,,,0.00,weatherlink.com 1.10,2013-01-22 00:19:00,
2013-01-21 19:34:00,26.9,25.0,29.93,North,3,0.0,1.0,93,0.00,,,0.00,weatherlink.com 1.10,2013-01-22 00:34:00,
2013-01-21 19:49:00,26.8,25.0,29.92,NE,37,0.0,1.0,93,0.00,,,0.00,weatherlink.com 1.10,2013-01-22 00:49:00,
2013-01-21 20:04:00,26.6,25.0,29.91,NNW,338,1.0,3.0,94,0.00,,,0.00,weatherlink.com 1.10,2013-01-22 01:04:00,
2013-01-21 20:19:00,26.4,25.0,29.91,NNE,31,1.0,3.0,94,0.00,,,0.00,weatherlink.com 1.10,2013-01-22 01:19:00,
2013-01-21 20:34:00,26.4,25.0,29.91,NE,54,2.0,3.0,95,0.00,,,0.00,weatherlink.com 1.10,2013-01-22 01:34:00,
2013-01-21 20:49:00,26.5,25.0,29.90,NNE,31,1.0,4.0,95,0.00,,,0.00,weatherlink.com 1.10,2013-01-22 01:49:00,
2013-01-21 21:04:00,26.7,26.0,29.89,North,4,2.0,2.0,95,0.00,,,0.00,weatherlink.com 1.10,2013-01-22 02:04:00,
2013-01-21 21:19:00,27.0,26.0,29.88,ENE,58,0.0,3.0,96,0.00,,,0.00,weatherlink.com 1.10,2013-01-22 02:19:00,
2013-01-21 21:34:00,27.2,26.0,29.87,ENE,65,0.0,3.0,96,0.00,,,0.00,weatherlink.com 1.10,2013-01-22 02:34:00,
2013-01-21 21:50:00,27.4,26.0,29.86,NE,49,0.0,2.0,96,0.00,,,0.00,weatherlink.com 1.10,2013-01-22 02:50:00,
2013-01-21 22:05:00,27.6,27.0,29.84,NE,38,1.0,2.0,96,0.00,,,0.00,weatherlink.com 1.10,2013-01-22 03:05:00,
2013-01-21 22:20:00,27.7,27.0,29.83,ENE,57,0.0,4.0,96,0.00,,,0.00,weatherlink.com 1.10,2013-01-22 03:20:00,
2013-01-21 22:35:00,28.0,27.0,29.82,ENE,60,0.0,5.0,96,0.00,,,0.00,weatherlink.com 1.10,2013-01-22 03:35:00,
2013-01-21 22:50:00,28.2,27.0,29.82,ENE,60,0.0,4.0,96,0.00,,,0.00,weatherlink.com 1.10,2013-01-22 03:50:00,
2013-01-21 23:05:00,28.2,27.0,29.80,East,81,1.0,4.0,96,0.00,,,0.00,weatherlink.com 1.10,2013-01-22 04:05:00,
2013-01-21 23:20:00,28.3,27.0,29.78,ENE,69,0.0,4.0,96,0.00,,,0.00,weatherlink.com 1.10,2013-01-22 04:20:00,
2013-01-21 23:35:00,28.3,27.0,29.79,NNE,33,0.0,2.0,96,0.00,,,0.00,weatherlink.com 1.10,2013-01-22 04:35:00,
2013-01-21 23:50:00,28.4,27.0,29.78,North,349,0.0,2.0,96,0.00,,,0.00,weatherlink.com 1.10,2013-01-22 04:50:00,